Time;durP1;ratioP1;P1;durP2;ratioP2;P2;SDS_P1;SDS_P2;PMS_P1;PMS_P2;Temp;Humidity;BMP_temperature;BMP_pressure;BME280_temperature;BME280_humidity;BME280_pressure;Samples;Min_cycle;Max_cycle;Signal;HPM_P1;HPM_P2
2022/12/30 00:01:17;;;;;;;10.23;2.15;;;;;;;7.65;100.00;100103.94;4969260;28;20082;-72
2022/12/30 00:03:44;;;;;;;8.98;2.08;;;;;;;7.63;100.00;100101.34;4958386;28;20057;-71
2022/12/30 00:06:17;;;;;;;4.93;1.50;;;;;;;7.59;100.00;100105.03;4959961;28;20054;-73
2022/12/30 00:08:47;;;;;;;9.20;2.10;;;;;;;7.60;100.00;100108.53;4958848;28;20058;-75
2022/12/30 00:11:22;;;;;;;7.93;2.15;;;;;;;7.56;100.00;100110.41;4960905;28;20119;-73
2022/12/30 00:34:00;;;;;;;7.82;1.70;;;;;;;7.30;100.00;100145.66;4959032;28;20409;-72
2022/12/30 00:36:29;;;;;;;14.40;2.15;;;;;;;7.33;100.00;100150.81;4954361;28;20039;-75
2022/12/30 00:38:56;;;;;;;7.32;1.90;;;;;;;7.30;100.00;100150.06;4962189;28;20085;-73
2022/12/30 00:44:08;;;;;;;11.63;2.25;;;;;;;7.29;100.00;100138.69;4962784;28;20066;-74
2022/12/30 00:46:37;;;;;;;9.50;2.17;;;;;;;7.23;100.00;100120.50;4958506;28;20057;-73
2022/12/30 00:57:19;;;;;;;11.93;2.13;;;;;;;7.15;100.00;100172.56;4965581;28;20153;-72
2022/12/30 00:59:46;;;;;;;8.90;1.70;;;;;;;7.13;100.00;100184.06;4957080;28;20043;-74
2022/12/30 01:02:12;;;;;;;8.88;2.42;;;;;;;7.08;100.00;100186.03;4961749;28;20050;-71
2022/12/30 01:04:40;;;;;;;8.07;2.05;;;;;;;7.03;100.00;100179.16;4950958;28;20046;-74
2022/12/30 01:07:06;;;;;;;8.85;2.08;;;;;;;7.03;100.00;100180.91;4956927;28;20407;-71
2022/12/30 01:09:36;;;;;;;7.90;1.80;;;;;;;6.90;100.00;100161.22;4965328;28;21119;-71
2022/12/30 01:12:07;;;;;;;12.13;2.88;;;;;;;7.03;100.00;100183.56;4966651;28;20093;-73
2022/12/30 01:14:34;;;;;;;12.25;2.83;;;;;;;6.90;100.00;100163.84;4967010;28;20050;-72
2022/12/30 01:17:02;;;;;;;14.95;2.08;;;;;;;6.99;100.00;100188.06;4956422;28;20118;-72
2022/12/30 01:19:29;;;;;;;10.75;2.05;;;;;;;6.99;100.00;100198.59;4967615;28;20055;-73
2022/12/30 01:21:56;;;;;;;13.90;2.13;;;;;;;6.99;100.00;100198.59;4965403;28;20129;-73
2022/12/30 01:24:23;;;;;;;13.18;2.50;;;;;;;6.94;100.00;100199.66;4964220;28;20241;-72
2022/12/30 01:26:50;;;;;;;11.80;2.08;;;;;;;6.86;100.00;100201.72;4968745;28;20466;-72
2022/12/30 01:29:25;;;;;;;14.68;2.08;;;;;;;6.82;100.00;100206.22;4966432;28;20051;-73
2022/12/30 01:31:58;;;;;;;13.15;2.08;;;;;;;6.78;100.00;100209.00;4970987;28;20480;-72
2022/12/30 01:34:25;;;;;;;9.52;1.88;;;;;;;6.75;100.00;100217.03;4964818;28;20043;-72
2022/12/30 01:36:52;;;;;;;12.32;1.80;;;;;;;6.73;100.00;100213.59;4963796;28;20093;-73
2022/12/30 01:39:19;;;;;;;8.63;1.63;;;;;;;6.75;100.00;100214.41;4964116;28;20359;-72
2022/12/30 01:41:47;;;;;;;11.82;2.55;;;;;;;6.76;100.00;100211.72;4962012;28;20149;-71
2022/12/30 01:44:50;;;;;;;12.32;1.92;;;;;;;6.77;100.00;100216.03;4963175;28;20053;-71
2022/12/30 01:47:41;;;;;;;8.60;1.70;;;;;;;6.72;100.00;100217.97;4960089;28;20043;-71
2022/12/30 01:50:09;;;;;;;12.02;1.88;;;;;;;6.72;100.00;100227.66;4965348;28;20081;-71
2022/12/30 01:52:48;;;;;;;16.52;2.58;;;;;;;6.65;100.00;100234.88;4964898;28;20557;-71
2022/12/30 01:55:25;;;;;;;14.15;2.17;;;;;;;6.59;100.00;100240.34;4964687;28;20090;-71
2022/12/30 01:57:54;;;;;;;10.68;2.08;;;;;;;6.55;100.00;100239.59;4967569;28;20049;-70
2022/12/30 02:00:21;;;;;;;13.13;2.25;;;;;;;6.51;100.00;100242.38;4961746;28;20042;-72
2022/12/30 02:02:49;;;;;;;11.73;2.10;;;;;;;6.45;100.00;100235.56;4969139;28;20086;-72
2022/12/30 02:05:19;;;;;;;9.98;2.15;;;;;;;6.44;100.00;100244.34;4959384;28;20133;-72
2022/12/30 02:07:52;;;;;;;12.15;2.28;;;;;;;6.28;100.00;100219.47;4969947;28;20054;-72
2022/12/30 02:10:21;;;;;;;10.88;2.03;;;;;;;6.42;100.00;100243.53;4963006;28;20051;-73
2022/12/30 02:12:48;;;;;;;10.43;2.33;;;;;;;6.42;100.00;100240.91;4970356;28;20089;-72
2022/12/30 02:15:14;;;;;;;12.63;2.83;;;;;;;6.43;100.00;100237.38;4959810;28;20058;-73
2022/12/30 02:17:47;;;;;;;11.02;2.60;;;;;;;6.43;100.00;100245.25;4967804;28;20557;-73
2022/12/30 02:20:42;;;;;;;8.23;1.88;;;;;;;6.43;100.00;100241.78;4965445;28;20051;-72
2022/12/30 02:23:27;;;;;;;13.27;2.08;;;;;;;6.47;100.00;100249.50;4962603;28;20046;-72
2022/12/30 02:25:57;;;;;;;12.75;2.22;;;;;;;6.34;100.00;100235.88;4965594;28;20098;-72
2022/12/30 02:28:53;;;;;;;14.25;2.53;;;;;;;6.44;100.00;100256.66;4963024;28;20162;-73
2022/12/30 02:31:23;;;;;;;12.05;1.90;;;;;;;6.44;100.00;100254.88;4967079;28;20046;-72
2022/12/30 02:34:24;;;;;;;10.90;1.73;;;;;;;6.48;100.00;100259.09;4967169;28;20061;-72
2022/12/30 02:37:04;;;;;;;9.40;1.92;;;;;;;6.43;100.00;100244.41;4964496;28;20051;-72
2022/12/30 02:39:38;;;;;;;12.00;1.95;;;;;;;6.50;100.00;100265.19;4967526;28;20057;-72
2022/12/30 02:45:07;;;;;;;14.20;5.63;;;;;;;6.27;100.00;100229.13;4964504;28;20545;-72
2022/12/30 02:47:54;;;;;;;12.85;3.13;;;;;;;6.29;100.00;100250.97;4967105;28;20142;-73
2022/12/30 02:53:16;;;;;;;8.10;1.88;;;;;;;6.18;100.00;100249.56;4966688;28;20047;-72
2022/12/30 02:55:43;;;;;;;15.73;2.88;;;;;;;6.10;100.00;100262.09;4964975;28;20061;-72
2022/12/30 02:58:11;;;;;;;8.23;2.17;;;;;;;5.88;100.00;100228.56;4965355;28;20050;-72
2022/12/30 03:04:35;;;;;;;6.50;1.98;;;;;;;5.94;100.00;100261.72;4935314;28;20050;-72
2022/12/30 03:07:14;;;;;;;11.75;2.10;;;;;;;5.93;100.00;100270.50;4952165;28;20061;-72
2022/12/30 03:13:25;;;;;;;11.32;2.30;;;;;;;5.84;100.00;100268.09;4961227;28;20134;-72
2022/12/30 03:16:15;;;;;;;12.93;2.53;;;;;;;5.83;100.00;100275.13;4963203;28;20058;-73
2022/12/30 03:18:43;;;;;;;9.60;2.10;;;;;;;5.86;100.00;100274.16;4967559;28;20062;-71
2022/12/30 03:21:14;;;;;;;13.45;2.03;;;;;;;5.83;100.00;100280.38;4957512;28;20043;-72
2022/12/30 03:29:18;;;;;;;11.90;2.15;;;;;;;5.77;100.00;100284.97;4954378;28;20051;-71
2022/12/30 03:31:46;;;;;;;12.75;2.60;;;;;;;5.69;100.00;100277.28;4976660;28;20124;-72
2022/12/30 03:34:13;;;;;;;13.77;2.70;;;;;;;5.66;100.00;100281.78;4963416;28;20050;-72
2022/12/30 03:36:46;;;;;;;12.38;2.63;;;;;;;5.62;100.00;100275.75;4962330;28;20696;-72
2022/12/30 03:39:13;;;;;;;12.77;2.38;;;;;;;5.70;100.00;100284.25;4962641;28;20566;-72
2022/12/30 03:41:43;;;;;;;10.23;2.65;;;;;;;5.59;100.00;100246.94;4960890;28;20117;-72
2022/12/30 03:44:11;;;;;;;9.68;2.20;;;;;;;5.71;100.00;100264.97;4961069;28;20086;-72
2022/12/30 03:46:40;;;;;;;6.95;2.00;;;;;;;5.80;100.00;100272.59;4963092;28;20480;-72
2022/12/30 03:49:07;;;;;;;9.60;2.42;;;;;;;5.81;100.00;100274.31;4967118;28;20113;-72
2022/12/30 03:51:33;;;;;;;11.15;2.70;;;;;;;5.86;100.00;100284.69;4964003;28;20059;-72
2022/12/30 03:54:00;;;;;;;13.55;2.28;;;;;;;5.81;100.00;100276.94;4966936;28;20061;-72
2022/12/30 03:56:27;;;;;;;14.18;2.50;;;;;;;5.82;100.00;100283.06;4964993;28;20062;-72
2022/12/30 03:58:53;;;;;;;10.70;2.53;;;;;;;5.78;100.00;100270.91;4964071;28;20370;-72
2022/12/30 04:01:20;;;;;;;9.73;2.40;;;;;;;5.80;100.00;100271.75;4957212;28;20058;-72
2022/12/30 04:03:47;;;;;;;14.75;2.65;;;;;;;5.82;100.00;100268.16;4959194;28;20206;-72
2022/12/30 04:06:13;;;;;;;12.18;2.25;;;;;;;5.87;100.00;100278.53;4952353;28;20047;-72
2022/12/30 04:08:40;;;;;;;7.57;2.25;;;;;;;5.94;100.00;100288.84;4954729;28;20057;-71
2022/12/30 04:11:06;;;;;;;7.65;2.30;;;;;;;5.97;100.00;100294.03;4964607;28;20051;-71
2022/12/30 04:13:33;;;;;;;9.48;2.50;;;;;;;5.83;100.00;100269.84;4961255;28;20197;-72
2022/12/30 04:15:59;;;;;;;8.27;2.13;;;;;;;6.00;100.00;100303.56;4961897;28;20468;-73
2022/12/30 04:18:26;;;;;;;8.13;2.38;;;;;;;5.96;100.00;100304.56;4964981;28;20051;-72
2022/12/30 04:20:53;;;;;;;13.95;2.60;;;;;;;5.94;100.00;100307.25;4959355;28;20049;-72
2022/12/30 04:23:19;;;;;;;11.00;2.47;;;;;;;5.95;100.00;100301.09;4963548;28;20050;-72
2022/12/30 04:25:46;;;;;;;15.43;2.67;;;;;;;6.03;100.00;100302.63;4969712;28;20482;-72
2022/12/30 04:28:12;;;;;;;11.85;2.78;;;;;;;5.97;100.00;100273.00;4962098;28;20051;-72
2022/12/30 04:30:39;;;;;;;10.85;2.22;;;;;;;6.14;100.00;100298.75;4964856;28;20515;-72
2022/12/30 04:33:06;;;;;;;13.18;2.58;;;;;;;6.09;100.00;100292.78;4969655;28;20053;-72
2022/12/30 04:35:32;;;;;;;12.35;2.70;;;;;;;6.12;100.00;100307.59;4967455;28;20057;-72
2022/12/30 04:37:59;;;;;;;13.68;2.42;;;;;;;6.10;100.00;100288.38;4964550;28;20093;-72
2022/12/30 04:40:25;;;;;;;10.50;2.35;;;;;;;6.33;100.00;100313.06;4961096;28;20158;-73
2022/12/30 04:42:52;;;;;;;10.25;2.42;;;;;;;6.41;100.00;100304.94;4972077;28;20059;-71
2022/12/30 04:45:18;;;;;;;9.90;2.63;;;;;;;6.29;100.00;100269.38;4964759;28;20157;-72
2022/12/30 04:47:45;;;;;;;10.80;2.47;;;;;;;6.49;100.00;100305.53;4968433;28;20042;-72
2022/12/30 04:50:12;;;;;;;11.23;2.40;;;;;;;6.54;100.00;100297.53;4961373;28;20047;-72
2022/12/30 04:52:38;;;;;;;12.13;3.03;;;;;;;6.57;100.00;100298.28;4967824;28;20498;-72
2022/12/30 04:55:05;;;;;;;12.73;2.63;;;;;;;6.59;100.00;100304.38;4969671;28;20461;-72
2022/12/30 04:57:32;;;;;;;11.43;2.40;;;;;;;6.41;100.00;100276.00;4965162;28;20077;-72
2022/12/30 04:59:58;;;;;;;11.90;2.38;;;;;;;6.30;100.00;100262.31;4966150;28;20157;-71
2022/12/30 05:02:25;;;;;;;13.23;2.50;;;;;;;6.35;100.00;100284.09;4965913;28;20053;-72
2022/12/30 05:04:52;;;;;;;12.65;2.92;;;;;;;6.30;100.00;100289.47;4965075;28;20069;-72
2022/12/30 05:07:18;;;;;;;10.75;2.40;;;;;;;6.23;100.00;100287.09;4968715;28;20058;-72
2022/12/30 05:09:45;;;;;;;13.52;2.30;;;;;;;6.17;100.00;100284.66;4965859;28;20077;-72
2022/12/30 05:12:11;;;;;;;10.02;2.40;;;;;;;6.19;100.00;100295.97;4966213;28;20693;-72
2022/12/30 05:14:38;;;;;;;13.10;2.75;;;;;;;6.01;100.00;100272.88;4969843;28;20047;-72
2022/12/30 05:17:05;;;;;;;13.13;3.08;;;;;;;6.14;100.00;100301.38;4970790;28;20149;-71
2022/12/30 05:19:31;;;;;;;12.68;2.55;;;;;;;5.96;100.00;100279.16;4966133;28;20047;-72
2022/12/30 05:21:58;;;;;;;12.38;2.97;;;;;;;6.11;100.00;100301.50;4967800;28;20051;-71
2022/12/30 05:27:09;;;;;;;11.73;2.92;;;;;;;6.18;100.00;100308.28;4970002;28;20047;-71
2022/12/30 05:29:36;;;;;;;12.60;2.67;;;;;;;6.18;100.00;100299.53;4957663;28;20057;-72
2022/12/30 05:32:02;;;;;;;10.90;3.17;;;;;;;6.24;100.00;100307.22;4967080;28;20154;-71
2022/12/30 05:34:29;;;;;;;14.60;3.08;;;;;;;6.26;100.00;100308.91;4964138;28;20047;-71
2022/12/30 05:36:56;;;;;;;13.20;2.55;;;;;;;6.22;100.00;100306.41;4969125;28;20173;-71
2022/12/30 05:39:22;;;;;;;9.75;2.88;;;;;;;6.04;100.00;100285.94;4967181;28;20042;-71
2022/12/30 05:41:49;;;;;;;12.13;2.92;;;;;;;6.17;100.00;100324.94;4967881;28;20058;-71
2022/12/30 05:44:15;;;;;;;12.60;2.92;;;;;;;6.12;100.00;100318.13;4960412;28;20135;-72
2022/12/30 05:46:42;;;;;;;14.77;3.28;;;;;;;6.11;100.00;100324.28;4967484;28;20169;-71
2022/12/30 05:49:09;;;;;;;10.98;3.40;;;;;;;6.08;100.00;100316.50;4963829;28;20070;-71
2022/12/30 05:51:35;;;;;;;9.30;2.95;;;;;;;6.04;100.00;100320.09;4966249;28;20066;-71
2022/12/30 05:54:02;;;;;;;11.60;2.55;;;;;;;6.01;100.00;100309.69;4965915;28;20061;-72
2022/12/30 05:56:29;;;;;;;15.48;3.38;;;;;;;6.04;100.00;100314.84;4965751;28;20039;-71
2022/12/30 05:58:55;;;;;;;9.82;2.78;;;;;;;6.02;100.00;100317.53;4965066;28;20046;-72
2022/12/30 06:01:22;;;;;;;13.05;3.55;;;;;;;6.02;100.00;100324.53;4966060;28;20061;-72
2022/12/30 06:03:48;;;;;;;16.95;3.38;;;;;;;5.97;100.00;100324.69;4962337;28;20076;-71
2022/12/30 06:06:15;;;;;;;9.05;2.63;;;;;;;5.99;100.00;100328.97;4966854;28;20510;-72
2022/12/30 06:08:42;;;;;;;15.93;3.50;;;;;;;5.83;100.00;100306.66;4962977;28;20057;-71
2022/12/30 06:11:08;;;;;;;11.07;3.50;;;;;;;5.99;100.00;100341.25;4960211;28;20057;-70
2022/12/30 06:13:35;;;;;;;13.18;3.25;;;;;;;5.99;100.00;100331.59;4962666;28;20070;-71
2022/12/30 06:16:02;;;;;;;12.70;3.80;;;;;;;5.97;100.00;100330.81;4961196;28;20057;-71
2022/12/30 06:18:28;;;;;;;13.00;3.75;;;;;;;5.88;100.00;100315.31;4959423;28;20088;-71
2022/12/30 06:20:55;;;;;;;16.33;3.42;;;;;;;5.96;100.00;100334.34;4955236;28;20047;-71
2022/12/30 06:23:22;;;;;;;13.35;3.95;;;;;;;5.97;100.00;100337.84;4961959;28;20051;-71
2022/12/30 06:25:54;;;;;;;15.25;3.58;;;;;;;5.83;100.00;100317.16;4962631;28;20137;-71
2022/12/30 06:28:22;;;;;;;17.13;3.83;;;;;;;5.99;100.00;100339.50;4962279;28;20054;-71
2022/12/30 06:30:49;;;;;;;14.30;3.63;;;;;;;5.98;100.00;100322.00;4960232;28;20082;-71
2022/12/30 06:33:17;;;;;;;13.43;4.03;;;;;;;6.03;100.00;100324.50;4958058;28;20059;-72
2022/12/30 06:35:45;;;;;;;13.05;3.58;;;;;;;6.03;100.00;100318.38;4961607;28;20458;-71
2022/12/30 06:38:12;;;;;;;17.88;3.83;;;;;;;6.03;100.00;100324.50;4960549;28;20055;-71
2022/12/30 06:40:39;;;;;;;11.10;3.58;;;;;;;6.04;100.00;100322.72;4961897;28;20058;-72
2022/12/30 06:43:05;;;;;;;11.68;3.35;;;;;;;6.06;100.00;100323.56;4959440;28;20055;-71
2022/12/30 06:45:32;;;;;;;14.68;3.63;;;;;;;6.06;100.00;100321.78;4962648;28;20054;-71
2022/12/30 06:47:58;;;;;;;14.95;3.95;;;;;;;6.05;100.00;100308.69;4962413;28;20046;-71
2022/12/30 06:50:25;;;;;;;16.17;3.90;;;;;;;6.07;100.00;100314.75;4962091;28;20138;-71
2022/12/30 06:52:54;;;;;;;14.82;3.67;;;;;;;6.07;100.00;100317.38;4964461;28;20125;-72
2022/12/30 06:55:21;;;;;;;16.08;3.72;;;;;;;5.98;100.00;100287.00;4959368;28;20078;-71
2022/12/30 06:57:48;;;;;;;13.48;3.50;;;;;;;6.23;100.00;100318.66;4959421;28;20051;-72
2022/12/30 07:00:16;;;;;;;12.35;3.72;;;;;;;6.29;100.00;100313.22;4958494;28;20671;-71
2022/12/30 07:02:42;;;;;;;8.50;3.55;;;;;;;6.28;100.00;100309.72;4959644;28;20360;-71
2022/12/30 07:05:09;;;;;;;12.02;3.65;;;;;;;6.37;100.00;100315.59;4962661;28;20494;-70
2022/12/30 07:07:35;;;;;;;11.82;3.42;;;;;;;6.39;100.00;100319.91;4963184;28;20058;-70
2022/12/30 07:10:02;;;;;;;18.88;3.90;;;;;;;6.41;100.00;100320.72;4953534;28;20138;-71
2022/12/30 07:12:29;;;;;;;18.40;4.13;;;;;;;6.41;100.00;100319.88;4955020;28;20053;-71
2022/12/30 07:14:56;;;;;;;13.65;3.75;;;;;;;6.44;100.00;100341.69;4958806;28;20425;-72
2022/12/30 07:17:22;;;;;;;15.35;4.10;;;;;;;6.42;100.00;100334.75;4955433;28;20487;-73
2022/12/30 07:19:49;;;;;;;14.10;3.92;;;;;;;6.44;100.00;100338.19;4962598;28;20125;-73
2022/12/30 07:22:16;;;;;;;14.02;4.07;;;;;;;6.46;100.00;100334.56;4961992;28;20059;-73
2022/12/30 07:24:43;;;;;;;15.40;4.07;;;;;;;6.51;100.00;100331.81;4958705;28;20125;-71
2022/12/30 07:27:11;;;;;;;16.45;4.22;;;;;;;6.52;100.00;100331.75;4967682;28;20051;-71
2022/12/30 07:29:38;;;;;;;19.52;3.67;;;;;;;6.51;100.00;100316.03;4961276;28;20294;-72
2022/12/30 07:32:09;;;;;;;15.50;4.97;;;;;;;6.62;100.00;100321.78;4968397;28;20125;-73
2022/12/30 07:34:39;;;;;;;12.65;3.38;;;;;;;6.66;100.00;100326.91;4958457;28;20089;-73
2022/12/30 07:37:09;;;;;;;10.38;3.33;;;;;;;6.74;100.00;100325.81;4963004;28;20054;-73
2022/12/30 07:39:38;;;;;;;9.55;2.92;;;;;;;6.79;100.00;100331.78;4962624;28;20062;-72
2022/12/30 07:42:04;;;;;;;13.75;3.50;;;;;;;6.85;100.00;100324.56;4963832;28;20055;-72
2022/12/30 07:44:31;;;;;;;15.30;3.58;;;;;;;6.88;100.00;100310.44;4961637;28;20804;-72
2022/12/30 07:46:58;;;;;;;10.93;3.45;;;;;;;6.93;100.00;100322.53;4963702;28;20097;-71
2022/12/30 07:49:24;;;;;;;13.88;3.47;;;;;;;6.98;100.00;100319.75;4962394;28;20050;-71
2022/12/30 07:51:51;;;;;;;11.35;3.13;;;;;;;7.15;100.00;100312.13;4967209;28;20469;-72
2022/12/30 07:54:17;;;;;;;8.48;3.15;;;;;;;7.20;100.00;100299.69;4971835;28;20398;-72
2022/12/30 07:56:44;;;;;;;11.13;2.30;;;;;;;7.32;100.00;100307.16;4964039;28;20450;-71
2022/12/30 07:59:14;;;;;;;11.98;2.53;;;;;;;7.39;100.00;100308.66;4964223;28;20503;-71
2022/12/30 08:01:41;;;;;;;9.50;2.22;;;;;;;7.34;100.00;100289.53;4956420;28;20062;-71
2022/12/30 08:04:08;;;;;;;9.23;2.30;;;;;;;7.52;100.00;100311.72;4959099;28;20050;-72
2022/12/30 08:06:54;;;;;;;10.13;3.17;;;;;;;7.68;100.00;100320.78;4962778;28;20487;-72
2022/12/30 08:09:21;;;;;;;10.40;2.80;;;;;;;7.72;100.00;100305.69;4965660;28;20077;-72
2022/12/30 08:11:47;;;;;;;10.95;2.42;;;;;;;7.53;100.00;100281.81;4965304;28;20073;-73
2022/12/30 08:14:14;;;;;;;9.65;2.80;;;;;;;7.59;100.00;100296.53;4961406;28;20049;-72
2022/12/30 08:16:41;;;;;;;9.50;2.80;;;;;;;7.60;100.00;100301.75;4968224;28;20053;-72
2022/12/30 08:19:07;;;;;;;6.53;2.47;;;;;;;7.56;100.00;100283.47;4965570;28;20070;-72
2022/12/30 08:21:34;;;;;;;6.70;2.13;;;;;;;7.64;100.00;100279.66;4967597;28;20138;-72
2022/12/30 08:24:01;;;;;;;11.18;3.05;;;;;;;7.78;100.00;100283.53;4958209;28;20103;-71
2022/12/30 08:26:27;;;;;;;12.38;2.47;;;;;;;7.79;100.00;100294.03;4953209;28;20042;-72
2022/12/30 08:28:54;;;;;;;9.90;2.38;;;;;;;7.86;100.00;100298.19;4963116;28;20508;-71
2022/12/30 08:31:23;;;;;;;11.90;2.63;;;;;;;7.82;100.00;100270.19;4960764;28;20051;-72
2022/12/30 08:33:51;;;;;;;13.68;2.47;;;;;;;7.88;100.00;100267.31;4960464;28;20154;-71
2022/12/30 08:36:21;;;;;;;4.55;2.03;;;;;;;8.04;100.00;100294.81;4960811;28;20097;-71
2022/12/30 08:38:51;;;;;;;10.95;2.67;;;;;;;8.05;100.00;100288.63;4963179;28;20057;-73
2022/12/30 08:41:25;;;;;;;10.13;2.78;;;;;;;8.01;100.00;100289.69;4963908;28;20401;-72
2022/12/30 08:43:54;;;;;;;9.68;2.83;;;;;;;7.89;100.00;100250.56;4962058;28;20406;-71
2022/12/30 08:46:20;;;;;;;8.38;2.60;;;;;;;8.05;100.00;100272.81;4962264;28;20054;-71
2022/12/30 08:48:47;;;;;;;11.55;2.90;;;;;;;8.06;100.00;100268.38;4963492;28;20046;-73
2022/12/30 08:51:14;;;;;;;13.00;3.40;;;;;;;8.09;100.00;100255.94;4958082;28;20070;-71
2022/12/30 08:53:40;;;;;;;10.27;2.78;;;;;;;8.14;100.00;100265.47;4961077;28;20046;-73
2022/12/30 08:56:14;;;;;;;12.82;3.17;;;;;;;8.12;100.00;100268.16;4957878;28;20486;-71
2022/12/30 08:58:41;;;;;;;10.65;2.70;;;;;;;8.13;100.00;100269.03;4964957;28;20138;-72
2022/12/30 09:01:10;;;;;;;6.93;2.78;;;;;;;8.21;100.00;100256.38;4962000;28;20065;-71
2022/12/30 09:03:37;;;;;;;10.55;2.72;;;;;;;8.24;100.00;100251.84;4962414;28;20042;-71
2022/12/30 09:06:05;;;;;;;10.43;2.25;;;;;;;8.31;100.00;100239.28;4959728;28;20054;-72
2022/12/30 09:08:31;;;;;;;11.57;2.35;;;;;;;8.36;100.00;100248.75;4969913;28;20070;-71
2022/12/30 09:11:04;;;;;;;8.90;2.55;;;;;;;8.41;100.00;100230.97;4955433;28;20051;-72
2022/12/30 09:13:31;;;;;;;10.70;2.70;;;;;;;8.46;100.00;100222.88;4966373;28;20047;-72
2022/12/30 09:15:58;;;;;;;7.90;2.38;;;;;;;8.61;100.00;100231.94;4968243;28;20148;-72
2022/12/30 09:18:25;;;;;;;8.82;2.65;;;;;;;8.63;100.00;100216.91;4959757;28;20086;-71
2022/12/30 09:20:51;;;;;;;10.65;2.42;;;;;;;8.64;100.00;100202.78;4961289;28;20057;-71
2022/12/30 09:23:18;;;;;;;11.02;2.70;;;;;;;8.85;100.00;100224.75;4955751;28;20043;-73
2022/12/30 09:25:45;;;;;;;9.82;2.75;;;;;;;8.84;100.00;100209.81;4957346;28;20055;-71
2022/12/30 09:28:12;;;;;;;8.07;2.40;;;;;;;8.72;100.00;100190.09;4958249;28;20053;-72
2022/12/30 09:30:39;;;;;;;8.90;2.38;;;;;;;8.88;100.00;100208.78;4953798;28;20039;-72
2022/12/30 09:33:05;;;;;;;8.75;2.55;;;;;;;8.91;100.00;100206.88;4953850;28;20495;-71
2022/12/30 09:35:32;;;;;;;8.77;2.40;;;;;;;8.92;100.00;100194.53;4966130;28;20130;-72
2022/12/30 09:37:59;;;;;;;6.10;2.05;;;;;;;8.83;100.00;100169.34;4960792;28;20507;-71
2022/12/30 09:40:50;;;;;;;10.52;2.38;;;;;;;9.09;100.00;100202.56;4956311;28;20058;-74
2022/12/30 09:43:19;;;;;;;13.70;2.50;;;;;;;9.15;100.00;100194.38;4961755;28;20494;-71
2022/12/30 09:46:10;;;;;;;7.72;2.72;;;;;;;9.05;100.00;100167.50;4958482;28;20053;-72
2022/12/30 09:48:43;;;;;;;7.78;2.40;;;;;;;9.23;100.00;100181.69;4956510;28;20051;-72
2022/12/30 09:51:17;;;;;;;14.07;3.00;;;;;;;9.13;100.00;100153.94;4958193;28;20133;-72
2022/12/30 09:53:56;;;;;;;7.20;2.33;;;;;;;9.29;100.00;100178.75;4958501;28;20062;-73
2022/12/30 09:56:30;;;;;;;7.40;2.42;;;;;;;9.26;100.00;100164.84;4961569;28;20567;-73
2022/12/30 09:59:05;;;;;;;7.35;3.10;;;;;;;9.23;100.00;100157.91;4962432;28;20126;-72
2022/12/30 10:01:43;;;;;;;8.70;2.97;;;;;;;9.25;100.00;100142.84;4962575;28;20050;-73
2022/12/30 10:04:18;;;;;;;5.65;2.55;;;;;;;9.31;100.00;100146.97;4966894;28;20054;-72
2022/12/30 10:07:05;;;;;;;4.68;2.28;;;;;;;9.34;100.00;100141.56;4965550;28;20051;-71
2022/12/30 10:10:00;;;;;;;4.90;1.88;;;;;;;9.37;100.00;100142.28;4959908;28;20152;-72
2022/12/30 10:12:53;;;;;;;6.45;2.05;;;;;;;9.38;100.00;100132.56;4952193;28;20066;-71
2022/12/30 10:15:33;;;;;;;4.85;2.10;;;;;;;9.41;100.00;100128.00;4961678;28;20069;-70
2022/12/30 10:18:25;;;;;;;5.75;2.17;;;;;;;9.45;100.00;100121.63;4948124;28;20746;-71
2022/12/30 10:21:02;;;;;;;4.95;2.10;;;;;;;9.48;100.00;100125.91;4943602;28;20150;-70
2022/12/30 10:23:49;;;;;;;5.22;2.20;;;;;;;9.62;100.00;100130.56;4944543;28;20148;-71
2022/12/30 10:26:22;;;;;;;2.80;1.83;;;;;;;9.64;100.00;100126.06;4948677;28;20047;-71
2022/12/30 10:28:59;;;;;;;6.00;3.00;;;;;;;9.61;100.00;100119.13;4941520;28;20066;-73
2022/12/30 10:31:29;;;;;;;4.55;2.03;;;;;;;9.63;100.00;100117.25;4940228;28;20058;-73
2022/12/30 10:34:08;;;;;;;4.03;2.00;;;;;;;9.70;100.00;100120.50;4945309;28;20138;-73
2022/12/30 10:36:46;;;;;;;4.07;1.80;;;;;;;9.80;100.00;100119.09;4939403;28;20059;-72
2022/12/30 10:39:21;;;;;;;4.18;1.73;;;;;;;9.74;100.00;100087.69;4940883;28;20050;-73
2022/12/30 10:41:54;;;;;;;4.82;1.50;;;;;;;9.97;100.00;100099.78;4944744;28;20047;-73
2022/12/30 10:44:30;;;;;;;3.83;1.30;;;;;;;9.85;100.00;100072.16;4942664;28;21101;-72
2022/12/30 10:47:35;;;;;;;4.25;1.38;;;;;;;9.96;100.00;100090.13;4940404;28;20049;-72
2022/12/30 10:50:15;;;;;;;3.10;1.35;;;;;;;10.05;100.00;100077.31;4935503;28;20050;-74
2022/12/30 10:52:41;;;;;;;4.10;1.20;;;;;;;10.04;100.00;100086.19;4944353;28;20061;-72
2022/12/30 10:55:20;;;;;;;3.97;1.58;;;;;;;10.01;100.00;100073.09;4939667;28;20055;-71
2022/12/30 10:57:49;;;;;;;4.13;1.70;;;;;;;9.89;100.00;100047.28;4942296;28;20054;-73
2022/12/30 11:00:17;;;;;;;3.42;1.90;;;;;;;9.93;100.00;100045.31;4940760;28;20055;-71
2022/12/30 11:02:53;;;;;;;3.67;1.30;;;;;;;9.96;100.00;100046.00;4944233;28;20383;-71
2022/12/30 11:05:28;;;;;;;3.33;1.13;;;;;;;9.81;100.00;100028.25;4942058;28;20046;-70
2022/12/30 11:08:00;;;;;;;5.15;2.50;;;;;;;9.80;100.00;100047.69;4946633;28;20097;-71
2022/12/30 11:10:27;;;;;;;6.45;2.38;;;;;;;9.76;100.00;100039.06;4946662;28;20054;-71
2022/12/30 11:15:58;;;;;;;2.08;0.80;;;;;;;9.82;100.00;100014.97;4953817;28;20058;-72
2022/12/30 11:18:29;;;;;;;3.15;1.13;;;;;;;9.87;100.00;100029.75;4949306;28;20045;-71
2022/12/30 11:20:59;;;;;;;3.38;0.90;;;;;;;9.87;100.00;100021.81;4947334;28;20043;-71
2022/12/30 11:23:40;;;;;;;5.50;1.80;;;;;;;9.85;100.00;100020.09;4950259;28;20055;-72
2022/12/30 11:26:17;;;;;;;6.20;2.17;;;;;;;9.77;100.00;100002.91;4940059;28;20494;-72
2022/12/30 11:28:52;;;;;;;2.33;1.10;;;;;;;9.94;100.00;100018.78;4941554;28;20050;-72
2022/12/30 11:31:20;;;;;;;6.22;1.73;;;;;;;10.03;100.00;100031.56;4945034;28;20049;-71
2022/12/30 11:33:48;;;;;;;3.92;1.50;;;;;;;10.02;100.00;100029.00;4940110;28;20072;-72
2022/12/30 11:36:29;;;;;;;2.17;1.02;;;;;;;10.00;100.00;100031.72;4944154;28;20058;-72
2022/12/30 11:39:16;;;;;;;1.92;0.70;;;;;;;10.03;100.00;100036.84;4941156;28;20133;-72
2022/12/30 11:41:51;;;;;;;3.38;1.23;;;;;;;9.94;100.00;100010.84;4933563;28;20057;-72
2022/12/30 11:44:28;;;;;;;2.42;0.80;;;;;;;10.02;100.00;100003.41;4947789;28;20047;-72
2022/12/30 11:47:01;;;;;;;3.38;1.40;;;;;;;10.12;100.00;99999.34;4944145;28;20054;-74
2022/12/30 11:49:35;;;;;;;4.80;1.00;;;;;;;10.09;100.00;99985.41;4941741;28;20208;-72
2022/12/30 11:52:11;;;;;;;2.95;1.02;;;;;;;10.16;100.00;99990.31;4948437;28;20069;-72
2022/12/30 11:54:50;;;;;;;2.80;1.02;;;;;;;10.21;100.00;99984.81;4937501;28;20058;-71
2022/12/30 11:57:28;;;;;;;2.55;0.88;;;;;;;10.19;100.00;99987.53;4942216;28;20186;-73
2022/12/30 11:59:58;;;;;;;2.35;0.75;;;;;;;10.12;100.00;99991.41;4936801;28;20047;-74
2022/12/30 12:02:45;;;;;;;4.13;1.00;;;;;;;10.08;100.00;99981.91;4950349;28;20074;-70
2022/12/30 12:05:39;;;;;;;4.30;1.00;;;;;;;10.04;100.00;99974.22;4939388;28;20058;-71
2022/12/30 12:08:15;;;;;;;4.22;1.40;;;;;;;10.08;100.00;99968.66;4946693;28;21003;-71
2022/12/30 12:10:53;;;;;;;4.78;0.95;;;;;;;9.95;100.00;99946.44;4946844;28;20138;-71
2022/12/30 12:13:33;;;;;;;2.97;0.95;;;;;;;9.88;100.00;99934.47;4951304;28;20161;-71
2022/12/30 12:16:00;;;;;;;2.00;0.77;;;;;;;10.02;100.00;99957.56;4949444;28;20486;-72
2022/12/30 12:18:37;;;;;;;1.92;0.70;;;;;;;10.03;100.00;99949.56;4936751;28;20109;-72
2022/12/30 12:21:24;;;;;;;2.15;0.90;;;;;;;9.96;100.00;99942.00;4941314;28;20046;-72
2022/12/30 12:24:03;;;;;;;3.25;1.10;;;;;;;10.00;100.00;99925.91;4944373;28;20094;-72
2022/12/30 13:11:13;;;;;;;2.60;1.17;;;;;;;10.08;100.00;99817.88;5166197;23;20053;-82
2022/12/30 13:14:32;;;;;;;3.55;1.10;;;;;;;10.11;98.69;99817.72;4858510;29;20113;-81
2022/12/30 13:17:04;;;;;;;3.55;1.10;;;;;;;10.18;97.48;99810.31;4846289;29;20137;-82
2022/12/30 13:19:37;;;;;;;3.95;1.20;;;;;;;9.29;98.07;99663.53;4856006;29;20136;-82